Time;durP1;ratioP1;P1;durP2;ratioP2;P2;SDS_P1;SDS_P2;PMS_P1;PMS_P2;Temp;Humidity;BMP_temperature;BMP_pressure;BME280_temperature;BME280_humidity;BME280_pressure;Samples;Min_cycle;Max_cycle;Signal;HPM_P1;HPM_P2
2023/01/22 00:01:08;;;;;;;13.43;7.15;;;0.30;99.90;;;;;;5097976;28;25072;-74
2023/01/22 00:03:36;;;;;;;15.98;6.82;;;0.30;99.90;;;;;;5097585;28;25057;-74
2023/01/22 00:06:04;;;;;;;13.13;6.18;;;0.30;99.90;;;;;;5080496;28;25075;-74
2023/01/22 00:08:32;;;;;;;11.57;6.03;;;0.30;99.90;;;;;;5097508;28;25060;-74
2023/01/22 00:10:59;;;;;;;11.38;6.00;;;0.30;99.90;;;;;;5097151;28;25055;-74
2023/01/22 00:13:27;;;;;;;14.02;7.25;;;0.20;99.90;;;;;;5097828;28;25066;-74
2023/01/22 00:15:59;;;;;;;9.88;5.40;;;0.30;99.90;;;;;;5097505;28;25069;-74
2023/01/22 00:18:27;;;;;;;11.20;5.80;;;0.30;99.90;;;;;;5079459;28;25117;-74
2023/01/22 00:20:55;;;;;;;10.18;5.65;;;0.30;99.90;;;;;;5097541;28;25116;-74
2023/01/22 00:23:23;;;;;;;11.93;6.45;;;0.30;99.90;;;;;;5097722;28;25052;-74
2023/01/22 00:26:23;;;;;;;11.77;6.18;;;0.30;99.90;;;;;;5097386;28;25066;-74
2023/01/22 00:28:50;;;;;;;11.27;5.88;;;0.30;99.90;;;;;;5052717;28;25138;-74
2023/01/22 00:31:18;;;;;;;12.85;6.20;;;0.30;99.90;;;;;;5097915;28;25069;-74
2023/01/22 00:33:46;;;;;;;10.38;5.93;;;0.30;99.90;;;;;;5097159;28;25109;-74
2023/01/22 00:36:16;;;;;;;11.25;5.43;;;0.30;99.90;;;;;;5079156;28;25137;-74
2023/01/22 00:38:44;;;;;;;15.30;6.28;;;0.30;99.90;;;;;;5096920;28;25074;-74
2023/01/22 00:41:13;;;;;;;11.27;5.32;;;0.30;99.90;;;;;;5097032;28;25087;-74
2023/01/22 00:43:40;;;;;;;12.43;5.93;;;0.30;99.90;;;;;;5096966;28;25072;-74
2023/01/22 00:46:09;;;;;;;15.32;6.10;;;0.30;99.90;;;;;;5078971;28;25050;-74
2023/01/22 00:48:37;;;;;;;12.95;5.65;;;0.30;99.90;;;;;;5096882;28;25103;-74
2023/01/22 00:51:07;;;;;;;12.02;6.30;;;0.30;99.90;;;;;;5096899;28;25097;-74
2023/01/22 00:53:36;;;;;;;12.43;6.80;;;0.30;99.90;;;;;;5097191;28;25071;-74
2023/01/22 00:56:05;;;;;;;10.68;4.15;;;0.20;99.90;;;;;;5097211;28;25117;-74
2023/01/22 00:58:32;;;;;;;12.20;5.57;;;0.30;99.90;;;;;;5078782;28;25065;-74
2023/01/22 01:01:04;;;;;;;9.80;5.43;;;0.30;99.90;;;;;;5096763;28;25066;-74
2023/01/22 01:03:32;;;;;;;11.95;6.13;;;0.30;99.90;;;;;;5078684;28;25138;-74
2023/01/22 01:06:06;;;;;;;9.98;5.75;;;0.20;99.90;;;;;;5096834;28;25072;-74
2023/01/22 01:08:37;;;;;;;10.95;5.75;;;0.30;99.90;;;;;;5096833;28;25067;-74
2023/01/22 01:11:06;;;;;;;12.05;5.25;;;0.20;99.90;;;;;;5096612;28;25061;-74
2023/01/22 01:13:37;;;;;;;9.93;4.50;;;0.30;99.90;;;;;;5096542;28;25068;-74
2023/01/22 01:16:08;;;;;;;11.30;6.32;;;0.30;99.90;;;;;;5096727;28;25069;-74
2023/01/22 01:18:36;;;;;;;12.00;5.50;;;0.30;99.90;;;;;;5096491;28;25058;-74
2023/01/22 01:21:06;;;;;;;10.80;5.35;;;0.30;99.90;;;;;;5078478;28;25106;-74
2023/01/22 01:23:35;;;;;;;8.85;4.88;;;0.30;99.90;;;;;;5096232;28;25062;-74
2023/01/22 01:26:10;;;;;;;11.65;5.00;;;0.30;99.90;;;;;;5078731;28;25116;-74
2023/01/22 01:28:39;;;;;;;8.80;4.60;;;0.30;99.90;;;;;;5078524;28;25104;-74
2023/01/22 01:31:09;;;;;;;8.00;4.72;;;0.30;99.90;;;;;;5096450;28;25078;-74
2023/01/22 01:33:37;;;;;;;8.13;5.03;;;0.30;99.90;;;;;;5078486;28;25059;-74
2023/01/22 01:36:07;;;;;;;8.63;4.55;;;0.30;99.90;;;;;;5096540;28;25074;-74
2023/01/22 01:38:35;;;;;;;8.77;4.45;;;0.30;99.90;;;;;;5096128;28;25138;-74
2023/01/22 01:41:03;;;;;;;7.85;4.30;;;0.30;99.90;;;;;;5096325;28;25075;-74
2023/01/22 01:43:30;;;;;;;6.18;3.65;;;0.30;99.90;;;;;;5078252;28;25108;-74
2023/01/22 01:45:59;;;;;;;7.30;3.97;;;0.30;99.90;;;;;;5096472;28;25135;-74
2023/01/22 01:48:38;;;;;;;7.65;4.22;;;0.30;99.90;;;;;;5096759;28;25071;-74
2023/01/22 01:51:08;;;;;;;7.93;3.90;;;0.30;99.90;;;;;;5096265;28;25113;-74
2023/01/22 01:53:36;;;;;;;8.52;4.10;;;0.30;99.90;;;;;;5078159;28;25098;-74
2023/01/22 01:56:13;;;;;;;9.05;4.70;;;0.30;99.90;;;;;;5096151;28;25095;-74
2023/01/22 01:58:42;;;;;;;6.55;3.65;;;0.30;99.90;;;;;;5096446;28;25110;-74
2023/01/22 02:01:17;;;;;;;7.47;3.88;;;0.30;99.90;;;;;;5096291;28;25076;-74
2023/01/22 02:03:46;;;;;;;7.32;3.92;;;0.30;99.90;;;;;;5096288;28;25099;-74
2023/01/22 02:06:15;;;;;;;7.82;3.78;;;0.30;99.90;;;;;;5096616;28;25067;-74
2023/01/22 02:08:46;;;;;;;9.63;4.32;;;0.30;99.90;;;;;;5096265;28;25072;-74
2023/01/22 02:11:14;;;;;;;7.85;3.83;;;0.30;99.90;;;;;;5096601;28;25072;-74
2023/01/22 02:13:45;;;;;;;7.43;3.70;;;0.30;99.90;;;;;;5096022;28;25074;-74
2023/01/22 02:16:13;;;;;;;6.32;3.78;;;0.30;99.90;;;;;;5096687;28;25072;-74
2023/01/22 02:18:40;;;;;;;8.18;4.00;;;0.30;99.90;;;;;;5078050;28;25102;-74
2023/01/22 02:21:34;;;;;;;6.22;3.67;;;0.30;99.90;;;;;;5096258;28;25123;-74
2023/01/22 02:24:09;;;;;;;8.75;4.60;;;0.30;99.90;;;;;;5096468;28;25136;-74
2023/01/22 02:26:37;;;;;;;8.27;4.15;;;0.30;99.90;;;;;;5095851;28;25121;-74
2023/01/22 02:29:06;;;;;;;9.13;4.78;;;0.30;99.90;;;;;;5096170;28;25080;-74
2023/01/22 02:31:39;;;;;;;7.57;4.25;;;0.30;99.90;;;;;;5095809;28;25055;-74
2023/01/22 02:34:08;;;;;;;7.93;3.92;;;0.30;99.90;;;;;;5099255;28;25099;-74
2023/01/22 02:36:37;;;;;;;7.07;3.67;;;0.30;99.90;;;;;;5099717;28;25097;-74
2023/01/22 02:39:05;;;;;;;8.02;4.43;;;0.30;99.90;;;;;;5099151;28;25056;-74
2023/01/22 02:41:32;;;;;;;6.30;4.10;;;0.30;99.90;;;;;;5099350;28;25076;-74
2023/01/22 02:44:00;;;;;;;7.40;3.60;;;0.30;99.90;;;;;;5099665;28;25112;-74
2023/01/22 02:46:29;;;;;;;7.97;4.35;;;0.30;99.90;;;;;;5099243;28;25091;-74
2023/01/22 02:48:56;;;;;;;6.55;3.92;;;0.30;99.90;;;;;;5099245;28;25076;-74
2023/01/22 02:51:25;;;;;;;7.68;4.38;;;0.30;99.90;;;;;;5099149;28;25102;-74
2023/01/22 02:53:53;;;;;;;8.10;4.40;;;0.30;99.90;;;;;;5099133;28;25138;-74
2023/01/22 02:56:21;;;;;;;7.28;4.00;;;0.30;99.90;;;;;;5081306;28;25114;-74
2023/01/22 02:58:49;;;;;;;6.72;4.10;;;0.40;99.90;;;;;;5099023;28;25075;-74
2023/01/22 03:01:19;;;;;;;9.10;4.07;;;0.40;99.90;;;;;;5098952;28;25061;-74
2023/01/22 03:04:00;;;;;;;7.22;4.03;;;0.40;99.90;;;;;;5099379;28;25066;-74
2023/01/22 03:06:31;;;;;;;7.82;4.28;;;0.40;99.90;;;;;;5098743;28;25072;-74
2023/01/22 03:08:59;;;;;;;6.55;3.92;;;0.40;99.90;;;;;;5098777;28;25100;-74
2023/01/22 03:11:29;;;;;;;8.55;4.13;;;0.40;99.90;;;;;;5098778;28;25089;-74
2023/01/22 03:22:16;;;;;;;6.60;3.90;;;0.40;99.90;;;;;;5098788;28;25076;-74
2023/01/22 03:24:43;;;;;;;5.95;3.45;;;0.40;99.90;;;;;;5098618;28;25077;-74
2023/01/22 03:27:10;;;;;;;7.35;3.97;;;0.40;99.90;;;;;;5081320;28;25156;-74
2023/01/22 03:29:38;;;;;;;7.93;4.45;;;0.40;99.90;;;;;;5098872;28;25074;-74
2023/01/22 03:32:06;;;;;;;8.55;4.25;;;0.40;99.90;;;;;;5098379;28;25083;-74
2023/01/22 03:34:33;;;;;;;6.45;3.88;;;0.40;99.90;;;;;;5098911;28;25066;-74
2023/01/22 03:37:01;;;;;;;6.97;3.95;;;0.40;99.90;;;;;;5098283;28;25112;-74
2023/01/22 03:39:29;;;;;;;7.97;4.32;;;0.40;99.90;;;;;;5076685;28;25128;-74
2023/01/22 03:41:57;;;;;;;6.65;3.35;;;0.40;99.90;;;;;;5077885;28;25080;-74
2023/01/22 03:44:24;;;;;;;7.80;3.97;;;0.40;99.90;;;;;;5077501;28;25076;-74
2023/01/22 03:46:52;;;;;;;6.60;3.67;;;0.40;99.90;;;;;;5078114;28;25112;-74
2023/01/22 03:49:19;;;;;;;6.63;3.78;;;0.40;99.90;;;;;;5077876;28;25068;-74
2023/01/22 03:51:46;;;;;;;7.88;3.20;;;0.40;99.90;;;;;;5076671;28;25097;-74
2023/01/22 03:54:15;;;;;;;6.70;3.85;;;0.40;99.90;;;;;;5077738;28;25058;-74
2023/01/22 03:56:42;;;;;;;8.10;3.97;;;0.40;99.90;;;;;;5077635;28;25076;-74
2023/01/22 03:59:10;;;;;;;7.78;4.32;;;0.40;99.90;;;;;;5078161;28;25061;-74
2023/01/22 04:01:37;;;;;;;7.28;4.22;;;0.40;99.90;;;;;;5077525;28;25061;-74
2023/01/22 04:04:05;;;;;;;8.80;3.88;;;0.40;99.90;;;;;;5076489;28;25075;-74
2023/01/22 04:06:32;;;;;;;9.85;5.00;;;0.40;99.90;;;;;;5077687;28;25062;-74
2023/01/22 04:09:00;;;;;;;7.72;3.67;;;0.40;99.90;;;;;;5077943;28;25050;-73
2023/01/22 04:11:27;;;;;;;6.32;3.50;;;0.40;99.90;;;;;;5077338;28;25076;-74
2023/01/22 04:13:55;;;;;;;6.00;3.70;;;0.40;99.90;;;;;;5077750;28;25064;-74
2023/01/22 04:16:22;;;;;;;7.22;3.22;;;0.40;99.90;;;;;;5077196;28;25051;-74
2023/01/22 04:18:49;;;;;;;6.53;3.90;;;0.40;99.90;;;;;;5077750;28;25064;-74
2023/01/22 04:21:17;;;;;;;6.10;3.58;;;0.40;99.90;;;;;;5077693;28;25086;-74
2023/01/22 04:23:44;;;;;;;9.02;3.92;;;0.40;99.90;;;;;;5077143;28;25091;-74
2023/01/22 04:26:12;;;;;;;6.20;3.45;;;0.40;99.90;;;;;;5075992;28;25055;-74
2023/01/22 04:28:39;;;;;;;5.60;3.33;;;0.40;99.90;;;;;;5077021;28;25155;-74
2023/01/22 04:31:08;;;;;;;6.15;3.78;;;0.40;99.90;;;;;;5077502;28;25103;-74
2023/01/22 04:33:36;;;;;;;6.25;3.10;;;0.40;99.90;;;;;;5076858;28;25056;-74
2023/01/22 04:36:04;;;;;;;6.32;3.40;;;0.40;99.90;;;;;;5077417;28;25077;-74
2023/01/22 04:38:31;;;;;;;7.55;3.63;;;0.40;99.90;;;;;;5075534;28;25102;-74
2023/01/22 04:40:58;;;;;;;5.72;3.17;;;0.40;99.90;;;;;;5077101;28;25126;-74
2023/01/22 04:43:28;;;;;;;4.97;3.05;;;0.40;99.90;;;;;;5076623;28;25059;-74
2023/01/22 04:45:55;;;;;;;5.80;2.97;;;0.40;99.90;;;;;;5075608;28;25059;-74
2023/01/22 04:48:22;;;;;;;4.90;2.72;;;0.40;99.90;;;;;;5077421;28;25083;-74
2023/01/22 04:50:50;;;;;;;5.80;2.90;;;0.40;99.90;;;;;;5076869;28;25063;-74
2023/01/22 04:53:18;;;;;;;5.07;3.15;;;0.40;99.90;;;;;;5075492;28;25111;-74
2023/01/22 04:55:45;;;;;;;4.97;2.60;;;0.40;99.90;;;;;;5076271;28;25057;-74
2023/01/22 04:58:13;;;;;;;5.38;2.97;;;0.40;99.90;;;;;;5075458;28;25073;-74
2023/01/22 05:00:40;;;;;;;4.72;2.80;;;0.40;99.90;;;;;;5076956;28;25055;-74
2023/01/22 05:03:09;;;;;;;6.00;2.95;;;0.40;99.90;;;;;;5076437;28;25074;-74
2023/01/22 05:05:36;;;;;;;4.97;2.72;;;0.40;99.90;;;;;;5076492;28;25057;-74
2023/01/22 05:08:04;;;;;;;6.18;2.88;;;0.40;99.90;;;;;;5076443;28;25121;-74
2023/01/22 05:10:32;;;;;;;4.30;2.47;;;0.40;99.90;;;;;;5076491;28;25076;-74
2023/01/22 05:13:03;;;;;;;4.05;2.30;;;0.40;99.90;;;;;;5076360;28;25076;-74
2023/01/22 05:15:31;;;;;;;5.45;3.10;;;0.40;99.90;;;;;;5075329;28;25082;-74
2023/01/22 05:17:58;;;;;;;4.05;2.25;;;0.40;99.90;;;;;;5076377;28;25142;-74
2023/01/22 05:20:26;;;;;;;5.00;2.80;;;0.40;99.90;;;;;;5076463;28;25065;-74
2023/01/22 05:22:53;;;;;;;4.68;2.47;;;0.40;99.90;;;;;;5076446;28;25083;-74
2023/01/22 05:25:21;;;;;;;4.05;2.22;;;0.40;99.90;;;;;;5076758;28;25112;-74
2023/01/22 05:27:48;;;;;;;4.50;2.33;;;0.40;99.90;;;;;;5075416;28;25097;-74
2023/01/22 05:30:16;;;;;;;3.80;2.55;;;0.40;99.90;;;;;;5076385;28;25054;-74
2023/01/22 05:32:43;;;;;;;4.60;2.55;;;0.40;99.90;;;;;;5076193;28;25106;-74
2023/01/22 05:35:10;;;;;;;4.85;2.47;;;0.40;99.90;;;;;;5076254;28;25068;-74
2023/01/22 05:37:37;;;;;;;3.33;2.00;;;0.40;99.90;;;;;;5079344;28;25103;-74
2023/01/22 05:40:05;;;;;;;5.18;2.90;;;0.40;99.90;;;;;;5096462;28;25080;-74
2023/01/22 05:42:33;;;;;;;3.50;1.88;;;0.40;99.90;;;;;;5096295;28;25059;-74
2023/01/22 05:45:00;;;;;;;4.15;2.90;;;0.40;99.90;;;;;;5096590;28;25125;-74
2023/01/22 05:47:28;;;;;;;4.43;2.58;;;0.40;99.90;;;;;;5096835;28;25131;-74
2023/01/22 05:49:56;;;;;;;5.30;2.92;;;0.40;99.90;;;;;;5096249;28;25060;-74
2023/01/22 05:52:23;;;;;;;4.55;2.75;;;0.40;99.90;;;;;;5096168;28;25075;-74
2023/01/22 05:54:51;;;;;;;4.95;2.75;;;0.40;99.90;;;;;;5078145;28;25058;-74
2023/01/22 05:57:18;;;;;;;4.97;2.85;;;0.40;99.90;;;;;;5096358;28;25120;-74
2023/01/22 05:59:46;;;;;;;5.80;3.13;;;0.40;99.90;;;;;;5096178;28;25064;-74
2023/01/22 06:02:13;;;;;;;4.60;2.50;;;0.40;99.90;;;;;;5095918;28;25118;-74
2023/01/22 06:04:40;;;;;;;6.53;2.67;;;0.40;99.90;;;;;;5096282;28;25067;-74
2023/01/22 06:07:08;;;;;;;5.45;2.95;;;0.40;99.90;;;;;;5096082;28;25093;-74
2023/01/22 06:09:35;;;;;;;5.57;3.08;;;0.40;99.90;;;;;;5099935;28;25066;-74
2023/01/22 06:12:03;;;;;;;5.00;2.67;;;0.40;99.90;;;;;;5099891;28;25078;-74
2023/01/22 06:14:30;;;;;;;4.72;2.55;;;0.40;99.90;;;;;;5100351;28;25164;-74
2023/01/22 06:16:58;;;;;;;3.88;2.22;;;0.40;99.90;;;;;;5100090;28;25079;-74
2023/01/22 06:19:26;;;;;;;5.50;3.10;;;0.40;99.90;;;;;;5081761;28;25129;-74
2023/01/22 06:21:53;;;;;;;4.15;2.60;;;0.40;99.90;;;;;;5099641;28;25060;-74
2023/01/22 06:24:21;;;;;;;4.72;2.78;;;0.40;99.90;;;;;;5099794;28;25084;-74
2023/01/22 06:26:48;;;;;;;4.28;2.60;;;0.40;99.90;;;;;;5081637;28;25056;-74
2023/01/22 06:29:16;;;;;;;5.55;2.42;;;0.40;99.90;;;;;;5099563;28;25136;-74
2023/01/22 06:31:44;;;;;;;3.67;2.13;;;0.40;99.90;;;;;;5100133;28;25057;-74
2023/01/22 06:34:12;;;;;;;3.35;1.98;;;0.40;99.90;;;;;;5099625;28;25069;-74
2023/01/22 06:36:39;;;;;;;4.07;2.08;;;0.40;99.90;;;;;;5081394;28;25071;-74
2023/01/22 06:39:06;;;;;;;3.20;1.80;;;0.40;99.90;;;;;;5099226;28;25094;-74
2023/01/22 06:41:34;;;;;;;5.45;2.28;;;0.40;99.90;;;;;;5099347;28;25081;-74
2023/01/22 06:44:01;;;;;;;2.92;1.80;;;0.40;99.90;;;;;;5099725;28;25097;-74
2023/01/22 06:46:28;;;;;;;3.25;1.73;;;0.40;99.90;;;;;;5099791;28;25046;-74
2023/01/22 06:48:57;;;;;;;3.38;2.10;;;0.40;99.90;;;;;;5099187;28;25050;-74
2023/01/22 06:51:25;;;;;;;3.35;1.70;;;0.50;99.90;;;;;;5099058;28;25148;-78
2023/01/22 06:53:52;;;;;;;3.45;1.88;;;0.50;99.90;;;;;;5099403;28;25074;-78
2023/01/22 06:56:19;;;;;;;2.72;1.60;;;0.50;99.90;;;;;;5099080;28;25097;-78
2023/01/22 06:58:46;;;;;;;3.45;1.83;;;0.50;99.90;;;;;;5099267;28;25095;-79
2023/01/22 07:01:13;;;;;;;2.95;1.73;;;0.50;99.90;;;;;;5081145;28;25062;-77
2023/01/22 07:03:41;;;;;;;3.28;1.70;;;0.50;99.90;;;;;;5098157;28;25148;-77
2023/01/22 07:06:09;;;;;;;3.47;1.58;;;0.50;99.90;;;;;;5099117;28;25079;-76
2023/01/22 07:08:36;;;;;;;4.20;1.95;;;0.50;99.90;;;;;;5098991;28;25062;-83
2023/01/22 07:11:04;;;;;;;4.72;1.58;;;0.50;99.90;;;;;;5098180;28;25158;-76
2023/01/22 07:13:31;;;;;;;4.18;1.95;;;0.50;99.90;;;;;;5098839;28;25079;-78
2023/01/22 07:16:03;;;;;;;3.70;1.80;;;0.50;99.90;;;;;;5098985;28;25048;-79
2023/01/22 07:18:33;;;;;;;3.17;1.80;;;0.50;99.90;;;;;;5098454;28;25131;-78
2023/01/22 07:21:05;;;;;;;2.28;1.48;;;0.50;99.90;;;;;;5098637;28;25109;-82
2023/01/22 07:23:32;;;;;;;3.47;1.80;;;0.50;99.90;;;;;;5096596;28;25134;-79
2023/01/22 07:25:59;;;;;;;4.00;1.98;;;0.50;99.90;;;;;;5098778;28;25079;-75
2023/01/22 07:28:27;;;;;;;8.98;4.28;;;0.50;99.90;;;;;;5098749;28;25051;-87
2023/01/22 07:30:55;;;;;;;7.45;3.97;;;0.50;99.90;;;;;;5080553;28;25114;-84
2023/01/22 07:33:22;;;;;;;9.32;4.97;;;0.50;99.90;;;;;;5080393;28;25072;-80
2023/01/22 07:35:58;;;;;;;9.57;6.07;;;0.50;99.90;;;;;;5080414;28;25062;-80
2023/01/22 07:38:27;;;;;;;5.50;2.60;;;0.50;99.90;;;;;;5098048;28;25055;-81
2023/01/22 07:41:04;;;;;;;3.70;2.38;;;0.50;99.90;;;;;;5080738;28;25114;-82
2023/01/22 07:43:32;;;;;;;6.88;3.20;;;0.60;99.90;;;;;;5080496;28;25155;-83
2023/01/22 07:46:03;;;;;;;5.30;2.75;;;0.60;99.90;;;;;;5098399;28;25062;-82
2023/01/22 07:48:33;;;;;;;6.90;3.90;;;0.60;99.90;;;;;;5098365;28;25117;-83
2023/01/22 07:51:05;;;;;;;4.40;2.45;;;0.60;99.90;;;;;;5098322;28;25085;-82
2023/01/22 07:53:34;;;;;;;4.15;2.58;;;0.60;99.90;;;;;;5097359;28;25078;-71
2023/01/22 07:56:01;;;;;;;4.40;2.58;;;0.60;99.90;;;;;;5097791;28;25063;-68
2023/01/22 07:58:29;;;;;;;3.78;2.35;;;0.60;99.90;;;;;;5098497;28;25103;-68
2023/01/22 08:00:56;;;;;;;3.88;2.30;;;0.70;99.90;;;;;;5098449;28;25044;-69
2023/01/22 08:03:24;;;;;;;5.32;2.40;;;0.70;99.90;;;;;;5097838;28;25059;-71
2023/01/22 08:05:51;;;;;;;5.22;2.85;;;0.70;99.90;;;;;;5098319;28;25055;-68
2023/01/22 08:08:19;;;;;;;2.72;1.80;;;0.70;99.90;;;;;;5098089;28;25061;-68
2023/01/22 08:10:47;;;;;;;5.07;2.00;;;0.80;99.90;;;;;;5079829;28;25096;-68
2023/01/22 08:13:14;;;;;;;3.28;2.13;;;0.80;99.90;;;;;;5097565;28;25085;-68
2023/01/22 08:15:45;;;;;;;3.90;2.05;;;0.80;99.90;;;;;;5063037;28;25091;-68
2023/01/22 08:18:12;;;;;;;3.47;2.10;;;0.80;99.90;;;;;;5097569;28;25090;-69
2023/01/22 08:20:39;;;;;;;3.88;2.42;;;0.80;99.90;;;;;;5097969;28;25063;-69
2023/01/22 08:23:06;;;;;;;3.95;1.90;;;0.80;99.90;;;;;;5097897;28;25134;-68
2023/01/22 08:25:34;;;;;;;3.88;2.35;;;0.80;99.90;;;;;;5097174;28;25117;-69
2023/01/22 08:28:03;;;;;;;4.03;2.55;;;0.90;99.90;;;;;;5079527;28;25081;-69
2023/01/22 08:30:35;;;;;;;5.93;3.58;;;0.90;99.90;;;;;;5096605;28;25120;-69
2023/01/22 08:33:03;;;;;;;4.65;2.63;;;0.90;99.90;;;;;;5097194;28;25070;-67
2023/01/22 08:35:31;;;;;;;4.53;2.75;;;0.90;99.90;;;;;;5097302;28;25060;-68
2023/01/22 08:38:00;;;;;;;4.22;2.83;;;0.90;99.90;;;;;;5075598;28;25131;-69
2023/01/22 08:40:27;;;;;;;7.30;4.38;;;0.90;99.90;;;;;;5076729;28;25093;-68
2023/01/22 08:42:55;;;;;;;5.05;3.03;;;0.90;99.90;;;;;;5077183;28;25106;-68
2023/01/22 08:45:23;;;;;;;5.57;2.70;;;1.00;99.90;;;;;;5077380;28;25134;-69
2023/01/22 08:47:57;;;;;;;5.85;2.85;;;0.90;99.90;;;;;;5075573;28;25101;-68
2023/01/22 08:50:28;;;;;;;7.20;3.67;;;1.00;99.90;;;;;;5076568;28;25067;-68
2023/01/22 08:52:58;;;;;;;13.60;4.82;;;1.00;99.90;;;;;;5075578;28;25087;-68
2023/01/22 08:55:29;;;;;;;12.57;4.45;;;1.00;99.90;;;;;;5076631;28;25052;-68
2023/01/22 08:57:57;;;;;;;8.30;4.20;;;1.00;99.90;;;;;;5076496;28;25089;-68
2023/01/22 09:00:25;;;;;;;8.80;4.35;;;1.10;99.90;;;;;;5077019;28;25175;-68
2023/01/22 09:02:58;;;;;;;9.82;4.70;;;1.10;99.90;;;;;;5076309;28;25082;-68
2023/01/22 09:05:26;;;;;;;8.80;4.07;;;1.10;99.90;;;;;;5077106;28;25095;-70
2023/01/22 09:07:54;;;;;;;4.63;2.75;;;1.10;99.90;;;;;;5076421;28;25072;-69
2023/01/22 09:10:22;;;;;;;9.93;5.25;;;1.10;99.90;;;;;;5076609;28;25080;-69
2023/01/22 09:12:50;;;;;;;4.47;2.65;;;1.10;99.90;;;;;;5075346;28;25111;-69
2023/01/22 09:15:17;;;;;;;8.88;3.70;;;1.10;99.90;;;;;;5077027;28;25077;-70
2023/01/22 09:17:44;;;;;;;12.93;6.55;;;1.10;99.90;;;;;;5076286;28;25117;-69
2023/01/22 09:20:11;;;;;;;10.10;5.32;;;1.20;99.90;;;;;;5075284;28;25160;-70
2023/01/22 09:22:39;;;;;;;4.40;3.17;;;1.20;99.90;;;;;;5076776;28;25067;-72
2023/01/22 09:25:07;;;;;;;4.45;2.58;;;1.20;99.90;;;;;;5076369;28;25110;-72
2023/01/22 09:27:34;;;;;;;4.95;2.95;;;1.20;99.90;;;;;;5076265;28;25090;-70
2023/01/22 09:30:02;;;;;;;4.30;2.17;;;1.20;99.90;;;;;;5076798;28;25074;-68
2023/01/22 09:32:29;;;;;;;4.32;2.85;;;1.20;99.90;;;;;;5076356;28;25074;-68
2023/01/22 09:34:56;;;;;;;3.35;2.00;;;1.20;99.90;;;;;;5058308;28;25058;-68
2023/01/22 09:37:24;;;;;;;4.32;2.75;;;1.20;99.90;;;;;;5059693;28;25112;-68
2023/01/22 09:39:52;;;;;;;3.47;2.00;;;1.20;99.90;;;;;;5078363;28;25064;-68
2023/01/22 09:42:39;;;;;;;3.33;1.70;;;1.20;99.90;;;;;;5098210;28;25164;-68
2023/01/22 09:45:12;;;;;;;3.88;2.22;;;1.30;99.90;;;;;;5100361;28;25093;-69
2023/01/22 09:47:50;;;;;;;2.85;1.55;;;1.30;99.90;;;;;;5100393;28;25066;-68
2023/01/22 09:50:26;;;;;;;2.60;1.65;;;1.30;99.90;;;;;;5101080;28;25138;-68
2023/01/22 09:52:55;;;;;;;3.70;2.15;;;1.30;99.90;;;;;;5100418;28;25099;-68
2023/01/22 09:55:30;;;;;;;2.88;1.70;;;1.40;99.90;;;;;;5100210;28;25083;-68
2023/01/22 09:58:04;;;;;;;3.67;1.98;;;1.40;99.90;;;;;;5082225;28;25055;-70
2023/01/22 10:01:05;;;;;;;3.40;1.90;;;1.50;99.90;;;;;;5100418;28;25057;-70
2023/01/22 10:03:57;;;;;;;2.65;1.70;;;1.50;99.90;;;;;;5028617;28;25062;-70
2023/01/22 10:06:27;;;;;;;3.83;1.75;;;1.50;99.90;;;;;;5099918;28;25049;-71
2023/01/22 10:09:07;;;;;;;2.78;1.70;;;1.50;99.90;;;;;;5082513;28;25118;-71
2023/01/22 10:11:35;;;;;;;2.53;1.80;;;1.50;99.90;;;;;;5100181;28;25072;-70
2023/01/22 10:14:07;;;;;;;3.70;1.88;;;1.50;99.90;;;;;;5081946;28;25064;-71
2023/01/22 10:16:35;;;;;;;2.30;1.40;;;1.50;99.90;;;;;;5081812;28;25052;-70
2023/01/22 10:19:23;;;;;;;2.08;1.25;;;1.40;99.90;;;;;;5100288;28;25084;-77
2023/01/22 10:21:59;;;;;;;;;;;1.40;99.90;;;;;;5100207;28;25091;-77
2023/01/22 10:24:29;;;;;;;5.17;2.37;;;1.30;99.90;;;;;;5099709;28;24066;-70
2023/01/22 10:26:57;;;;;;;3.22;1.80;;;1.30;99.90;;;;;;5099847;28;25067;-70
2023/01/22 10:29:33;;;;;;;3.63;1.70;;;1.30;99.90;;;;;;5099610;28;25115;-69
2023/01/22 10:32:05;;;;;;;3.22;2.08;;;1.20;99.90;;;;;;5099754;28;25081;-69
2023/01/22 10:34:35;;;;;;;4.07;2.38;;;1.20;99.90;;;;;;5081486;28;25047;-69
2023/01/22 10:37:13;;;;;;;3.60;2.13;;;1.20;99.90;;;;;;5100061;28;25110;-69
2023/01/22 10:39:43;;;;;;;3.58;2.22;;;1.10;99.90;;;;;;5099274;28;25119;-69
2023/01/22 10:42:18;;;;;;;3.97;2.00;;;1.10;99.90;;;;;;5099310;28;25087;-69
2023/01/22 10:44:45;;;;;;;4.07;2.28;;;1.10;99.90;;;;;;5081337;28;25071;-70
2023/01/22 10:47:21;;;;;;;4.20;2.20;;;1.10;99.90;;;;;;5099275;28;25096;-70
2023/01/22 10:50:05;;;;;;;4.13;2.80;;;1.10;99.90;;;;;;5099484;28;25050;-70
2023/01/22 10:52:41;;;;;;;4.72;2.67;;;1.10;99.90;;;;;;5099438;28;25059;-70
2023/01/22 10:55:22;;;;;;;3.90;2.13;;;1.10;99.90;;;;;;5080533;28;25141;-70
2023/01/22 10:57:59;;;;;;;3.85;2.10;;;1.10;99.90;;;;;;5081971;28;25144;-69
2023/01/22 11:00:35;;;;;;;4.25;2.60;;;1.10;99.90;;;;;;5099726;28;25054;-69
2023/01/22 11:03:14;;;;;;;;;;;1.10;99.90;;;;;;5081361;28;25066;-70
2023/01/22 11:05:46;;;;;;;9.60;4.40;;;1.00;99.90;;;;;;5099197;28;25141;-70
2023/01/22 11:08:18;;;;;;;10.40;4.95;;;1.00;99.90;;;;;;5099545;28;25075;-70
2023/01/22 11:11:01;;;;;;;12.80;5.55;;;1.10;99.90;;;;;;5098770;28;25067;-70
2023/01/22 11:13:41;;;;;;;36.95;12.38;;;1.10;99.90;;;;;;5098765;28;25096;-69
2023/01/22 11:16:19;;;;;;;46.85;16.20;;;1.10;99.90;;;;;;5098647;28;25078;-69
2023/01/22 11:19:25;;;;;;;53.92;17.30;;;1.20;99.90;;;;;;5098840;28;25114;-69
2023/01/22 11:21:57;;;;;;;28.83;13.02;;;1.20;99.90;;;;;;5093891;28;25148;-72
2023/01/22 11:24:39;;;;;;;9.57;5.38;;;1.30;99.90;;;;;;5098532;28;25081;-69
2023/01/22 11:27:35;;;;;;;7.88;5.05;;;1.30;99.90;;;;;;5098975;28;25051;-69
2023/01/22 11:30:13;;;;;;;11.88;7.30;;;1.40;99.90;;;;;;5098845;28;25063;-69
2023/01/22 11:32:56;;;;;;;15.88;8.40;;;1.40;99.90;;;;;;5098952;28;25060;-70
2023/01/22 11:35:42;;;;;;;17.67;9.30;;;1.40;99.90;;;;;;5098834;28;25051;-69
2023/01/22 11:38:31;;;;;;;19.65;9.85;;;1.40;99.90;;;;;;5098351;28;25137;-71
2023/01/22 11:41:05;;;;;;;18.48;10.35;;;1.50;99.90;;;;;;5098776;28;25126;-71
2023/01/22 11:43:45;;;;;;;11.57;6.35;;;1.50;99.90;;;;;;5098661;28;25091;-68
2023/01/22 11:46:32;;;;;;;9.95;5.95;;;1.60;99.90;;;;;;5098069;28;25113;-68
2023/01/22 11:49:29;;;;;;;8.10;4.53;;;1.60;99.90;;;;;;5098211;28;25071;-68
2023/01/22 11:52:02;;;;;;;7.15;4.20;;;1.60;99.90;;;;;;5098031;28;25052;-68
2023/01/22 11:54:49;;;;;;;6.40;3.75;;;1.60;99.90;;;;;;5098455;28;25072;-70
2023/01/22 11:57:58;;;;;;;7.18;4.18;;;1.70;99.90;;;;;;5098538;28;25117;-70
2023/01/22 12:00:44;;;;;;;6.68;3.60;;;1.70;99.90;;;;;;5080583;28;25068;-71
2023/01/22 12:03:35;;;;;;;4.63;2.97;;;1.70;99.90;;;;;;5098317;28;25073;-71
2023/01/22 12:06:34;;;;;;;6.22;4.30;;;1.70;99.90;;;;;;5096981;28;25101;-72
2023/01/22 12:09:20;;;;;;;6.45;4.18;;;1.70;99.90;;;;;;5098084;28;25078;-72
2023/01/22 12:12:06;;;;;;;8.32;3.95;;;1.80;99.90;;;;;;5097612;28;25136;-72
2023/01/22 12:15:03;;;;;;;7.53;4.60;;;1.80;99.90;;;;;;5097704;28;25060;-70
2023/01/22 12:17:52;;;;;;;7.93;4.93;;;1.80;99.90;;;;;;5079524;28;25071;-72
2023/01/22 12:20:32;;;;;;;8.07;5.00;;;1.80;99.90;;;;;;5097547;28;25063;-72
2023/01/22 12:23:30;;;;;;;6.50;3.45;;;1.80;99.90;;;;;;5097915;28;25054;-71
2023/01/22 12:26:25;;;;;;;5.65;3.90;;;1.90;99.90;;;;;;5097903;28;25112;-72
2023/01/22 12:29:11;;;;;;;5.72;3.90;;;2.00;99.90;;;;;;5097261;28;25075;-72
2023/01/22 12:32:09;;;;;;;5.63;3.42;;;2.10;99.90;;;;;;5097251;28;25052;-72
2023/01/22 12:34:56;;;;;;;6.70;4.50;;;2.10;99.90;;;;;;5097338;28;25475;-72
2023/01/22 12:37:26;;;;;;;;;;;2.10;99.90;;;;;;5079635;28;25098;-72
2023/01/22 12:40:44;;;;;;;8.07;4.40;;;2.10;99.90;;;;;;5096955;28;25064;-72
2023/01/22 12:43:12;;;;;;;5.50;3.53;;;2.10;99.90;;;;;;5055331;28;25071;-71
2023/01/22 12:45:55;;;;;;;4.68;3.15;;;2.10;99.90;;;;;;5097608;28;25109;-72
2023/01/22 12:48:51;;;;;;;5.38;4.30;;;2.10;99.90;;;;;;5097579;28;25075;-72
2023/01/22 12:51:49;;;;;;;6.35;3.08;;;2.10;99.90;;;;;;5097291;28;25082;-72
2023/01/22 12:54:35;;;;;;;5.93;3.70;;;2.20;99.90;;;;;;5058806;28;25069;-72
2023/01/22 12:57:22;;;;;;;8.15;4.50;;;2.20;99.90;;;;;;5097683;28;25053;-72
2023/01/22 12:59:50;;;;;;;;;;;2.20;99.90;;;;;;5097835;28;25115;-71
2023/01/22 13:02:38;;;;;;;7.70;4.30;;;2.20;99.90;;;;;;5096910;28;25053;-72
2023/01/22 13:05:11;;;;;;;5.40;3.60;;;2.20;99.90;;;;;;5078940;28;25074;-71
2023/01/22 13:07:43;;;;;;;7.53;4.47;;;2.10;99.90;;;;;;5097010;28;25082;-71
2023/01/22 13:10:31;;;;;;;7.13;4.00;;;2.10;99.90;;;;;;5096726;28;25074;-71
2023/01/22 13:13:24;;;;;;;6.43;3.63;;;2.00;99.90;;;;;;5096681;28;25080;-71
2023/01/22 13:16:29;;;;;;;7.78;4.60;;;2.00;99.90;;;;;;5097190;28;25124;-71
2023/01/22 13:18:57;;;;;;;8.32;4.93;;;2.00;99.90;;;;;;5093894;28;25070;-72
2023/01/22 13:21:31;;;;;;;6.85;4.47;;;1.90;99.90;;;;;;5096439;28;25124;-71
2023/01/22 13:24:05;;;;;;;9.30;5.57;;;1.90;99.90;;;;;;5078684;28;25060;-71
2023/01/22 13:26:35;;;;;;;7.03;4.45;;;1.90;99.90;;;;;;5078632;28;25070;-71
2023/01/22 13:29:18;;;;;;;8.32;4.20;;;1.80;99.90;;;;;;5096444;28;25064;-71